createdAt,value
2022-08-18T00:03:00.404Z,57.40
2022-08-18T00:07:02.125Z,58.10
2022-08-18T00:11:04.476Z,58.22
2022-08-18T00:15:05.801Z,58.07
2022-08-18T00:19:09.407Z,58.07
2022-08-18T00:23:13.383Z,57.86
2022-08-18T00:27:17.111Z,57.20
2022-08-18T00:31:17.690Z,56.91
2022-08-18T00:35:20.793Z,56.50
2022-08-18T00:39:23.452Z,56.77
2022-08-18T00:43:39.845Z,56.63
2022-08-18T00:47:42.768Z,56.02
2022-08-18T00:51:47.874Z,55.42
2022-08-18T00:55:54.250Z,55.14
2022-08-18T01:00:10.869Z,55.09
2022-08-18T01:04:15.110Z,55.09
2022-08-18T01:08:29.008Z,55.49
2022-08-18T01:12:45.398Z,56.41
2022-08-18T01:17:09.271Z,57.92
2022-08-18T01:21:35.062Z,58.78
2022-08-18T01:25:55.776Z,59.43
2022-08-18T01:29:55.910Z,59.71
2022-08-18T01:33:56.618Z,59.42
2022-08-18T01:37:57.798Z,59.20
2022-08-18T01:42:01.245Z,58.46
2022-08-18T01:46:00.834Z,58.50
2022-08-18T01:50:01.067Z,57.60
2022-08-18T01:54:01.511Z,56.85
2022-08-18T01:58:04.676Z,56.36
2022-08-18T02:02:04.352Z,55.14
2022-08-18T02:06:11.185Z,53.87
2022-08-18T02:10:15.327Z,55.33
2022-08-18T02:14:33.731Z,57.40
2022-08-18T02:18:47.623Z,58.19
2022-08-18T02:22:49.642Z,59.25
2022-08-18T02:26:49.830Z,59.02
2022-08-18T02:30:51.336Z,58.69
2022-08-18T02:34:51.354Z,58.58
2022-08-18T02:38:59.170Z,58.56
2022-08-18T02:42:59.874Z,58.55
2022-08-18T02:47:02.908Z,58.48
2022-08-18T02:51:04.070Z,58.33
2022-08-18T02:55:04.615Z,58.62
2022-08-18T02:59:08.300Z,59.75
2022-08-18T03:03:11.019Z,60.27
2022-08-18T03:07:11.219Z,60.51
2022-08-18T03:11:11.384Z,61.14
2022-08-18T03:15:12.738Z,61.50
2022-08-18T03:19:16.008Z,61.14
2022-08-18T03:23:16.501Z,61.66
2022-08-18T03:27:16.535Z,62.23
2022-08-18T03:31:17.962Z,62.78
2022-08-18T03:35:19.783Z,62.19
2022-08-18T03:39:23.123Z,62.51
2022-08-18T03:43:50.210Z,62.72
2022-08-18T03:47:45.551Z,63.57
2022-08-18T03:51:51.332Z,63.87
2022-08-18T03:55:50.637Z,64.32
2022-08-18T03:59:50.698Z,64.69
2022-08-18T04:03:54.141Z,64.85
2022-08-18T04:07:56.857Z,64.68
2022-08-18T04:11:58.008Z,63.26
2022-08-18T04:16:01.864Z,63.21
2022-08-18T04:20:01.349Z,62.38
2022-08-18T04:24:04.732Z,60.71
2022-08-18T04:28:04.823Z,57.93
2022-08-18T04:32:06.936Z,57.73
2022-08-18T04:36:12.218Z,57.69
2022-08-18T04:40:24.458Z,56.75
2022-08-18T04:44:25.374Z,55.86
2022-08-18T04:48:24.877Z,53.66
2022-08-18T04:52:42.035Z,49.42
2022-08-18T04:56:44.290Z,47.76
2022-08-18T05:00:45.462Z,45.26
2022-08-18T05:04:46.769Z,43.51
2022-08-18T05:08:46.783Z,42.20
2022-08-18T05:12:49.730Z,40.33
2022-08-18T05:16:49.797Z,41.07
2022-08-18T05:28:23.620Z,41.21
2022-08-18T05:33:48.108Z,40.69
2022-08-18T05:38:01.152Z,41.88
2022-08-18T05:42:07.853Z,42.88
2022-08-18T05:46:09.626Z,42.07
2022-08-18T05:50:12.404Z,42.74
2022-08-18T05:54:31.200Z,43.34
2022-08-18T05:58:36.272Z,43.04
2022-08-18T06:02:40.332Z,43.00
2022-08-18T06:06:44.146Z,41.40
2022-08-18T06:10:50.490Z,41.99
2022-08-18T06:14:50.475Z,40.85
2022-08-18T06:18:56.760Z,41.79
2022-08-18T06:23:06.434Z,41.69
2022-08-18T06:27:14.177Z,42.87
2022-08-18T06:31:17.715Z,44.74
2022-08-18T06:35:26.559Z,46.01
2022-08-18T06:39:33.871Z,47.50
2022-08-18T06:43:44.114Z,47.73
2022-08-18T06:47:53.216Z,46.58
2022-08-18T06:52:33.230Z,45.67
2022-08-18T06:57:33.190Z,44.80
2022-08-18T07:01:35.478Z,44.21
2022-08-18T07:05:40.970Z,44.00
2022-08-18T07:09:40.331Z,43.45
2022-08-18T07:13:44.282Z,41.62
2022-08-18T07:17:51.531Z,40.70
2022-08-18T07:22:06.285Z,40.40
2022-08-18T07:26:13.522Z,39.88
2022-08-18T07:30:27.544Z,39.11
2022-08-18T07:34:48.333Z,38.04
2022-08-18T07:39:02.205Z,37.92
2022-08-18T07:43:05.877Z,38.13
2022-08-18T07:47:17.790Z,38.83
2022-08-18T07:51:26.970Z,37.79
2022-08-18T07:55:35.309Z,37.94
2022-08-18T07:59:41.762Z,36.40
2022-08-18T08:04:25.442Z,36.93
2022-08-18T08:08:59.242Z,37.50
2022-08-18T08:13:09.750Z,38.25
2022-08-18T08:17:29.521Z,38.32
2022-08-18T08:21:35.135Z,37.64
2022-08-18T08:26:08.092Z,37.15
2022-08-18T08:30:10.764Z,36.70
2022-08-18T08:34:21.732Z,37.55
2022-08-18T08:38:42.165Z,39.72
2022-08-18T08:43:07.208Z,39.68
2022-08-18T14:45:58.106Z,36.44
2022-08-18T14:50:01.626Z,36.75
2022-08-18T14:54:07.423Z,36.64
2022-08-18T14:58:11.602Z,36.64
2022-08-18T15:02:27.642Z,37.12
2022-08-18T15:06:27.837Z,37.03
2022-08-18T15:10:28.454Z,36.84
2022-08-18T15:14:33.253Z,36.75
2022-08-18T15:19:58.372Z,37.76
2022-08-18T15:23:41.962Z,38.28
2022-08-18T15:27:43.495Z,38.88
2022-08-18T15:31:50.812Z,38.83
2022-08-18T15:35:57.641Z,39.06
2022-08-18T15:40:05.311Z,38.80
2022-08-18T15:44:07.540Z,39.41
2022-08-18T15:48:10.300Z,38.75
2022-08-18T15:52:19.789Z,37.97
2022-08-18T15:56:21.794Z,37.73
2022-08-18T16:00:22.275Z,38.24
2022-08-18T16:04:32.642Z,38.78
2022-08-18T16:08:57.202Z,39.18
2022-08-18T16:13:22.305Z,39.59
2022-08-18T16:17:36.469Z,39.84
2022-08-18T16:21:39.778Z,39.69
2022-08-18T16:25:42.955Z,39.34
2022-08-18T16:29:42.850Z,39.15
2022-08-18T16:33:43.094Z,39.57
2022-08-18T16:37:50.010Z,39.88
2022-08-18T16:41:54.204Z,40.25
2022-08-18T16:45:55.596Z,40.17
2022-08-18T16:49:58.466Z,40.10
2022-08-18T16:54:22.768Z,40.01
2022-08-18T17:03:53.641Z,40.28
2022-08-18T17:08:03.894Z,40.35
2022-08-18T17:12:40.484Z,40.22
2022-08-18T17:16:44.314Z,40.16
2022-08-18T17:20:50.482Z,40.48
2022-08-18T17:24:51.526Z,40.59
2022-08-18T18:04:29.465Z,43.27
2022-08-18T18:16:05.958Z,44.32
2022-08-18T18:32:40.670Z,44.87
2022-08-18T18:38:08.045Z,44.80
2022-08-18T18:44:10.812Z,44.36
2022-08-18T19:39:33.941Z,43.64
2022-08-18T20:03:37.978Z,44.23
2022-08-18T21:01:39.759Z,59.16
2022-08-18T22:48:16.904Z,57.75
2022-08-18T23:29:48.895Z,56.55
